sensor_id;sensor_type;location;lat;lon;timestamp;pressure;altitude;pressure_sealevel;temperature
22322;BMP180;11328;53.928;18.522;2023-11-21T00:01:17;99676.00;;;1.50
22322;BMP180;11328;53.928;18.522;2023-11-21T00:03:44;99687.00;;;1.50
22322;BMP180;11328;53.928;18.522;2023-11-21T00:06:11;99683.00;;;1.70
22322;BMP180;11328;53.928;18.522;2023-11-21T00:08:38;99687.00;;;1.50
22322;BMP180;11328;53.928;18.522;2023-11-21T00:11:05;99705.00;;;1.50
22322;BMP180;11328;53.928;18.522;2023-11-21T00:13:33;99710.00;;;1.60
22322;BMP180;11328;53.928;18.522;2023-11-21T00:16:00;99716.00;;;1.60
22322;BMP180;11328;53.928;18.522;2023-11-21T00:18:27;99704.00;;;1.60
22322;BMP180;11328;53.928;18.522;2023-11-21T00:20:54;99714.00;;;1.60
22322;BMP180;11328;53.928;18.522;2023-11-21T00:23:21;99703.00;;;1.60
22322;BMP180;11328;53.928;18.522;2023-11-21T00:25:48;99713.00;;;1.60
22322;BMP180;11328;53.928;18.522;2023-11-21T00:28:16;99714.00;;;1.50
22322;BMP180;11328;53.928;18.522;2023-11-21T00:30:43;99718.00;;;1.50
22322;BMP180;11328;53.928;18.522;2023-11-21T00:33:10;99708.00;;;1.70
22322;BMP180;11328;53.928;18.522;2023-11-21T00:35:37;99719.00;;;1.60
22322;BMP180;11328;53.928;18.522;2023-11-21T00:38:04;99699.00;;;1.50
22322;BMP180;11328;53.928;18.522;2023-11-21T00:40:31;99680.00;;;1.50
22322;BMP180;11328;53.928;18.522;2023-11-21T00:42:58;99718.00;;;1.50
22322;BMP180;11328;53.928;18.522;2023-11-21T00:45:27;99723.00;;;1.50
22322;BMP180;11328;53.928;18.522;2023-11-21T00:47:54;99728.00;;;1.50
22322;BMP180;11328;53.928;18.522;2023-11-21T00:50:22;99720.00;;;1.50
22322;BMP180;11328;53.928;18.522;2023-11-21T00:52:49;99732.00;;;1.60
22322;BMP180;11328;53.928;18.522;2023-11-21T00:55:18;99709.00;;;1.60
22322;BMP180;11328;53.928;18.522;2023-11-21T00:57:45;99734.00;;;1.50
22322;BMP180;11328;53.928;18.522;2023-11-21T01:00:13;99740.00;;;1.50
22322;BMP180;11328;53.928;18.522;2023-11-21T01:02:44;99727.00;;;1.50
22322;BMP180;11328;53.928;18.522;2023-11-21T01:05:11;99739.00;;;1.30
22322;BMP180;11328;53.928;18.522;2023-11-21T01:07:39;99715.00;;;1.40
22322;BMP180;11328;53.928;18.522;2023-11-21T01:10:06;99727.00;;;1.50
22322;BMP180;11328;53.928;18.522;2023-11-21T01:12:37;99767.00;;;1.50
22322;BMP180;11328;53.928;18.522;2023-11-21T01:15:06;99770.00;;;1.50
22322;BMP180;11328;53.928;18.522;2023-11-21T01:17:38;99756.00;;;1.50
22322;BMP180;11328;53.928;18.522;2023-11-21T01:20:07;99752.00;;;1.50
22322;BMP180;11328;53.928;18.522;2023-11-21T01:22:39;99752.00;;;1.40
22322;BMP180;11328;53.928;18.522;2023-11-21T01:25:07;99753.00;;;1.40
22322;BMP180;11328;53.928;18.522;2023-11-21T01:27:34;99751.00;;;1.50
22322;BMP180;11328;53.928;18.522;2023-11-21T01:30:03;99753.00;;;1.50
22322;BMP180;11328;53.928;18.522;2023-11-21T01:32:31;99756.00;;;1.30
22322;BMP180;11328;53.928;18.522;2023-11-21T01:34:59;99761.00;;;1.40
22322;BMP180;11328;53.928;18.522;2023-11-21T01:37:26;99761.00;;;1.40
22322;BMP180;11328;53.928;18.522;2023-11-21T01:39:55;99765.00;;;1.40
22322;BMP180;11328;53.928;18.522;2023-11-21T01:42:22;99763.00;;;1.40
22322;BMP180;11328;53.928;18.522;2023-11-21T01:44:50;99763.00;;;1.30
22322;BMP180;11328;53.928;18.522;2023-11-21T01:47:17;99765.00;;;1.30
22322;BMP180;11328;53.928;18.522;2023-11-21T01:49:46;99780.00;;;1.40
22322;BMP180;11328;53.928;18.522;2023-11-21T01:52:14;99775.00;;;1.50
22322;BMP180;11328;53.928;18.522;2023-11-21T01:54:41;99773.00;;;1.40
22322;BMP180;11328;53.928;18.522;2023-11-21T01:57:09;99776.00;;;1.50
22322;BMP180;11328;53.928;18.522;2023-11-21T01:59:38;99783.00;;;1.50
22322;BMP180;11328;53.928;18.522;2023-11-21T02:02:09;99783.00;;;1.60
22322;BMP180;11328;53.928;18.522;2023-11-21T02:04:37;99749.00;;;1.50
22322;BMP180;11328;53.928;18.522;2023-11-21T02:07:05;99796.00;;;1.60
22322;BMP180;11328;53.928;18.522;2023-11-21T02:09:35;99793.00;;;1.50
22322;BMP180;11328;53.928;18.522;2023-11-21T02:12:05;99797.00;;;1.50
22322;BMP180;11328;53.928;18.522;2023-11-21T02:14:32;99779.00;;;1.60
22322;BMP180;11328;53.928;18.522;2023-11-21T02:17:00;99797.00;;;1.70
22322;BMP180;11328;53.928;18.522;2023-11-21T02:19:28;99799.00;;;1.70
22322;BMP180;11328;53.928;18.522;2023-11-21T02:21:59;99799.00;;;1.70
22322;BMP180;11328;53.928;18.522;2023-11-21T02:24:27;99809.00;;;1.60
22322;BMP180;11328;53.928;18.522;2023-11-21T02:26:54;99805.00;;;1.70
22322;BMP180;11328;53.928;18.522;2023-11-21T02:29:22;99807.00;;;1.60
22322;BMP180;11328;53.928;18.522;2023-11-21T02:31:52;99811.00;;;1.70
22322;BMP180;11328;53.928;18.522;2023-11-21T02:34:22;99808.00;;;1.70
22322;BMP180;11328;53.928;18.522;2023-11-21T02:36:52;99824.00;;;1.60
22322;BMP180;11328;53.928;18.522;2023-11-21T02:39:20;99823.00;;;1.80
22322;BMP180;11328;53.928;18.522;2023-11-21T02:41:49;99810.00;;;1.90
22322;BMP180;11328;53.928;18.522;2023-11-21T02:44:17;99825.00;;;1.90
22322;BMP180;11328;53.928;18.522;2023-11-21T02:46:44;99827.00;;;1.80
22322;BMP180;11328;53.928;18.522;2023-11-21T02:49:11;99829.00;;;1.80
22322;BMP180;11328;53.928;18.522;2023-11-21T02:51:38;99819.00;;;1.90
22322;BMP180;11328;53.928;18.522;2023-11-21T02:54:06;99807.00;;;1.80
22322;BMP180;11328;53.928;18.522;2023-11-21T02:56:35;99792.00;;;1.70
22322;BMP180;11328;53.928;18.522;2023-11-21T02:59:02;99807.00;;;1.50
22322;BMP180;11328;53.928;18.522;2023-11-21T03:01:29;99817.00;;;1.50
22322;BMP180;11328;53.928;18.522;2023-11-21T03:03:56;99817.00;;;1.70
22322;BMP180;11328;53.928;18.522;2023-11-21T03:06:24;99811.00;;;1.90
22322;BMP180;11328;53.928;18.522;2023-11-21T03:08:51;99809.00;;;1.80
22322;BMP180;11328;53.928;18.522;2023-11-21T03:11:18;99808.00;;;1.70
22322;BMP180;11328;53.928;18.522;2023-11-21T03:13:45;99825.00;;;1.90
22322;BMP180;11328;53.928;18.522;2023-11-21T03:16:13;99827.00;;;1.90
22322;BMP180;11328;53.928;18.522;2023-11-21T03:18:40;99827.00;;;1.90
22322;BMP180;11328;53.928;18.522;2023-11-21T03:21:08;99812.00;;;1.90
22322;BMP180;11328;53.928;18.522;2023-11-21T03:23:36;99802.00;;;1.80
22322;BMP180;11328;53.928;18.522;2023-11-21T03:26:04;99837.00;;;1.90
22322;BMP180;11328;53.928;18.522;2023-11-21T03:28:31;99840.00;;;1.80
22322;BMP180;11328;53.928;18.522;2023-11-21T03:30:58;99853.00;;;1.80
22322;BMP180;11328;53.928;18.522;2023-11-21T03:33:25;99855.00;;;1.70
22322;BMP180;11328;53.928;18.522;2023-11-21T03:35:52;99852.00;;;1.80
22322;BMP180;11328;53.928;18.522;2023-11-21T03:38:20;99854.00;;;1.90
22322;BMP180;11328;53.928;18.522;2023-11-21T03:40:47;99854.00;;;2.10
22322;BMP180;11328;53.928;18.522;2023-11-21T03:43:15;99862.00;;;2.10
22322;BMP180;11328;53.928;18.522;2023-11-21T03:45:42;99858.00;;;2.20
22322;BMP180;11328;53.928;18.522;2023-11-21T03:48:09;99859.00;;;2.20
22322;BMP180;11328;53.928;18.522;2023-11-21T03:50:38;99855.00;;;2.10
22322;BMP180;11328;53.928;18.522;2023-11-21T03:53:05;99855.00;;;1.90
22322;BMP180;11328;53.928;18.522;2023-11-21T03:55:32;99851.00;;;1.80
22322;BMP180;11328;53.928;18.522;2023-11-21T03:58:00;99846.00;;;1.80
22322;BMP180;11328;53.928;18.522;2023-11-21T04:00:28;99847.00;;;1.70
22322;BMP180;11328;53.928;18.522;2023-11-21T04:02:55;99848.00;;;1.50
22322;BMP180;11328;53.928;18.522;2023-11-21T04:05:23;99846.00;;;1.50
22322;BMP180;11328;53.928;18.522;2023-11-21T04:07:51;99847.00;;;1.50
22322;BMP180;11328;53.928;18.522;2023-11-21T04:10:18;99859.00;;;1.60
22322;BMP180;11328;53.928;18.522;2023-11-21T04:12:46;99851.00;;;1.60
22322;BMP180;11328;53.928;18.522;2023-11-21T04:15:13;99853.00;;;1.60
22322;BMP180;11328;53.928;18.522;2023-11-21T04:17:41;99836.00;;;1.60
22322;BMP180;11328;53.928;18.522;2023-11-21T04:20:09;99873.00;;;1.60
22322;BMP180;11328;53.928;18.522;2023-11-21T04:22:41;99871.00;;;1.70
22322;BMP180;11328;53.928;18.522;2023-11-21T04:25:14;99884.00;;;1.90
22322;BMP180;11328;53.928;18.522;2023-11-21T04:27:43;99882.00;;;1.80
22322;BMP180;11328;53.928;18.522;2023-11-21T04:30:13;99883.00;;;1.90
22322;BMP180;11328;53.928;18.522;2023-11-21T04:32:40;99892.00;;;1.80
22322;BMP180;11328;53.928;18.522;2023-11-21T04:35:09;99891.00;;;1.80
22322;BMP180;11328;53.928;18.522;2023-11-21T04:37:36;99878.00;;;1.90
22322;BMP180;11328;53.928;18.522;2023-11-21T04:40:04;99882.00;;;1.80
22322;BMP180;11328;53.928;18.522;2023-11-21T04:42:37;99897.00;;;1.90
22322;BMP180;11328;53.928;18.522;2023-11-21T04:45:07;99860.00;;;1.90
22322;BMP180;11328;53.928;18.522;2023-11-21T04:47:36;99876.00;;;1.80
22322;BMP180;11328;53.928;18.522;2023-11-21T04:50:05;99879.00;;;1.70
22322;BMP180;11328;53.928;18.522;2023-11-21T04:52:33;99888.00;;;1.70
22322;BMP180;11328;53.928;18.522;2023-11-21T04:55:00;99885.00;;;1.70
22322;BMP180;11328;53.928;18.522;2023-11-21T04:57:28;99894.00;;;1.70
22322;BMP180;11328;53.928;18.522;2023-11-21T04:59:55;99899.00;;;1.70
22322;BMP180;11328;53.928;18.522;2023-11-21T05:02:23;99891.00;;;1.70
22322;BMP180;11328;53.928;18.522;2023-11-21T05:05:02;99907.00;;;1.80
22322;BMP180;11328;53.928;18.522;2023-11-21T05:07:29;99906.00;;;1.70
22322;BMP180;11328;53.928;18.522;2023-11-21T05:09:58;99904.00;;;1.70
22322;BMP180;11328;53.928;18.522;2023-11-21T05:12:25;99921.00;;;1.50
22322;BMP180;11328;53.928;18.522;2023-11-21T05:14:52;99915.00;;;1.40
22322;BMP180;11328;53.928;18.522;2023-11-21T05:17:19;99925.00;;;1.40
22322;BMP180;11328;53.928;18.522;2023-11-21T05:19:46;99927.00;;;1.30
22322;BMP180;11328;53.928;18.522;2023-11-21T05:22:16;99933.00;;;1.30
22322;BMP180;11328;53.928;18.522;2023-11-21T05:24:43;99910.00;;;1.40
22322;BMP180;11328;53.928;18.522;2023-11-21T05:27:10;99940.00;;;1.40
22322;BMP180;11328;53.928;18.522;2023-11-21T05:29:37;99944.00;;;1.40
22322;BMP180;11328;53.928;18.522;2023-11-21T05:32:05;99941.00;;;1.50
22322;BMP180;11328;53.928;18.522;2023-11-21T05:34:32;99946.00;;;1.50
22322;BMP180;11328;53.928;18.522;2023-11-21T05:36:59;99949.00;;;1.40
22322;BMP180;11328;53.928;18.522;2023-11-21T05:39:26;99958.00;;;1.40
22322;BMP180;11328;53.928;18.522;2023-11-21T05:41:54;99958.00;;;1.40
22322;BMP180;11328;53.928;18.522;2023-11-21T05:44:22;99963.00;;;1.50
22322;BMP180;11328;53.928;18.522;2023-11-21T05:46:50;99977.00;;;1.60
22322;BMP180;11328;53.928;18.522;2023-11-21T05:49:17;99985.00;;;1.50
22322;BMP180;11328;53.928;18.522;2023-11-21T05:51:48;99993.00;;;1.60
22322;BMP180;11328;53.928;18.522;2023-11-21T05:54:15;100002.00;;;1.60
22322;BMP180;11328;53.928;18.522;2023-11-21T05:56:43;100002.00;;;1.60
22322;BMP180;11328;53.928;18.522;2023-11-21T05:59:11;100000.00;;;1.60
22322;BMP180;11328;53.928;18.522;2023-11-21T06:01:38;99996.00;;;1.70
22322;BMP180;11328;53.928;18.522;2023-11-21T06:04:06;100008.00;;;1.60
22322;BMP180;11328;53.928;18.522;2023-11-21T06:06:36;100017.00;;;1.70
22322;BMP180;11328;53.928;18.522;2023-11-21T06:09:03;100017.00;;;1.60
22322;BMP180;11328;53.928;18.522;2023-11-21T06:11:30;100030.00;;;1.70
22322;BMP180;11328;53.928;18.522;2023-11-21T06:13:57;100030.00;;;1.70
22322;BMP180;11328;53.928;18.522;2023-11-21T06:16:25;100037.00;;;1.60
22322;BMP180;11328;53.928;18.522;2023-11-21T06:18:52;100040.00;;;1.60
22322;BMP180;11328;53.928;18.522;2023-11-21T06:21:19;100037.00;;;1.70
22322;BMP180;11328;53.928;18.522;2023-11-21T06:23:46;100048.00;;;1.70
22322;BMP180;11328;53.928;18.522;2023-11-21T06:26:13;100043.00;;;1.50
22322;BMP180;11328;53.928;18.522;2023-11-21T06:28:41;100050.00;;;1.60
22322;BMP180;11328;53.928;18.522;2023-11-21T06:31:08;100054.00;;;1.50
22322;BMP180;11328;53.928;18.522;2023-11-21T06:33:35;100054.00;;;1.40
22322;BMP180;11328;53.928;18.522;2023-11-21T06:36:02;100066.00;;;1.50
22322;BMP180;11328;53.928;18.522;2023-11-21T06:38:29;100074.00;;;1.50
22322;BMP180;11328;53.928;18.522;2023-11-21T06:40:59;100080.00;;;1.60
22322;BMP180;11328;53.928;18.522;2023-11-21T06:43:29;100086.00;;;1.50
22322;BMP180;11328;53.928;18.522;2023-11-21T06:45:58;100093.00;;;1.60
22322;BMP180;11328;53.928;18.522;2023-11-21T06:48:25;100097.00;;;1.60
22322;BMP180;11328;53.928;18.522;2023-11-21T06:50:52;100093.00;;;1.70
22322;BMP180;11328;53.928;18.522;2023-11-21T06:53:20;100094.00;;;1.70
22322;BMP180;11328;53.928;18.522;2023-11-21T06:55:47;100108.00;;;1.60
22322;BMP180;11328;53.928;18.522;2023-11-21T06:58:14;100101.00;;;1.50
22322;BMP180;11328;53.928;18.522;2023-11-21T07:00:41;100096.00;;;1.40
22322;BMP180;11328;53.928;18.522;2023-11-21T07:03:13;100104.00;;;1.20
22322;BMP180;11328;53.928;18.522;2023-11-21T07:05:40;100066.00;;;1.10
22322;BMP180;11328;53.928;18.522;2023-11-21T07:08:07;100111.00;;;1.40
22322;BMP180;11328;53.928;18.522;2023-11-21T07:10:35;100073.00;;;1.50
22322;BMP180;11328;53.928;18.522;2023-11-21T07:13:03;100121.00;;;1.50
22322;BMP180;11328;53.928;18.522;2023-11-21T07:15:30;100107.00;;;1.50
22322;BMP180;11328;53.928;18.522;2023-11-21T07:17:58;100123.00;;;1.60
22322;BMP180;11328;53.928;18.522;2023-11-21T07:20:25;100120.00;;;1.60
22322;BMP180;11328;53.928;18.522;2023-11-21T07:22:52;100132.00;;;1.70
22322;BMP180;11328;53.928;18.522;2023-11-21T07:25:19;100130.00;;;1.60
22322;BMP180;11328;53.928;18.522;2023-11-21T07:27:46;100139.00;;;1.70
22322;BMP180;11328;53.928;18.522;2023-11-21T07:30:13;100137.00;;;1.80
22322;BMP180;11328;53.928;18.522;2023-11-21T07:32:40;100138.00;;;1.80
22322;BMP180;11328;53.928;18.522;2023-11-21T07:35:08;100137.00;;;1.70
22322;BMP180;11328;53.928;18.522;2023-11-21T07:37:35;100145.00;;;1.80
22322;BMP180;11328;53.928;18.522;2023-11-21T07:40:03;100137.00;;;1.60
22322;BMP180;11328;53.928;18.522;2023-11-21T07:42:30;100128.00;;;1.50
22322;BMP180;11328;53.928;18.522;2023-11-21T07:44:57;100137.00;;;1.70
22322;BMP180;11328;53.928;18.522;2023-11-21T07:47:24;100137.00;;;1.70
22322;BMP180;11328;53.928;18.522;2023-11-21T07:49:54;100136.00;;;1.70
22322;BMP180;11328;53.928;18.522;2023-11-21T07:52:23;100130.00;;;1.70
22322;BMP180;11328;53.928;18.522;2023-11-21T07:54:50;100153.00;;;1.60
22322;BMP180;11328;53.928;18.522;2023-11-21T07:57:17;100144.00;;;1.60
22322;BMP180;11328;53.928;18.522;2023-11-21T07:59:44;100146.00;;;1.50
22322;BMP180;11328;53.928;18.522;2023-11-21T08:02:11;100146.00;;;1.60
22322;BMP180;11328;53.928;18.522;2023-11-21T08:04:39;100139.00;;;1.60
22322;BMP180;11328;53.928;18.522;2023-11-21T08:07:06;100147.00;;;1.60
22322;BMP180;11328;53.928;18.522;2023-11-21T08:09:33;100137.00;;;1.60
22322;BMP180;11328;53.928;18.522;2023-11-21T08:12:01;100153.00;;;1.70
22322;BMP180;11328;53.928;18.522;2023-11-21T08:14:29;100140.00;;;1.80
22322;BMP180;11328;53.928;18.522;2023-11-21T08:16:56;100151.00;;;1.70
22322;BMP180;11328;53.928;18.522;2023-11-21T08:19:26;100151.00;;;1.80
22322;BMP180;11328;53.928;18.522;2023-11-21T08:21:54;100154.00;;;1.80
22322;BMP180;11328;53.928;18.522;2023-11-21T08:24:22;100160.00;;;1.60
22322;BMP180;11328;53.928;18.522;2023-11-21T08:26:49;100167.00;;;1.70
22322;BMP180;11328;53.928;18.522;2023-11-21T08:29:16;100167.00;;;1.70
22322;BMP180;11328;53.928;18.522;2023-11-21T08:31:44;100172.00;;;1.60
22322;BMP180;11328;53.928;18.522;2023-11-21T08:34:13;100170.00;;;1.60
22322;BMP180;11328;53.928;18.522;2023-11-21T08:36:45;100178.00;;;1.60
22322;BMP180;11328;53.928;18.522;2023-11-21T08:39:12;100097.00;;;1.50
22322;BMP180;11328;53.928;18.522;2023-11-21T08:41:40;100185.00;;;1.50
22322;BMP180;11328;53.928;18.522;2023-11-21T08:44:08;100190.00;;;1.60
22322;BMP180;11328;53.928;18.522;2023-11-21T08:46:35;100186.00;;;1.50
22322;BMP180;11328;53.928;18.522;2023-11-21T08:49:04;100180.00;;;1.40
22322;BMP180;11328;53.928;18.522;2023-11-21T08:51:32;100191.00;;;1.40
22322;BMP180;11328;53.928;18.522;2023-11-21T08:53:59;100187.00;;;1.50
22322;BMP180;11328;53.928;18.522;2023-11-21T08:56:31;100207.00;;;1.50
22322;BMP180;11328;53.928;18.522;2023-11-21T08:58:58;100184.00;;;1.40
22322;BMP180;11328;53.928;18.522;2023-11-21T09:01:27;100192.00;;;1.50
22322;BMP180;11328;53.928;18.522;2023-11-21T09:03:54;100191.00;;;1.50
22322;BMP180;11328;53.928;18.522;2023-11-21T09:06:21;100185.00;;;1.50
22322;BMP180;11328;53.928;18.522;2023-11-21T09:08:48;100189.00;;;1.40
22322;BMP180;11328;53.928;18.522;2023-11-21T09:11:18;100203.00;;;1.60
22322;BMP180;11328;53.928;18.522;2023-11-21T09:13:45;100172.00;;;1.60
22322;BMP180;11328;53.928;18.522;2023-11-21T09:16:14;100197.00;;;1.50
22322;BMP180;11328;53.928;18.522;2023-11-21T09:18:43;100212.00;;;1.60
22322;BMP180;11328;53.928;18.522;2023-11-21T09:21:10;100213.00;;;1.70
22322;BMP180;11328;53.928;18.522;2023-11-21T09:23:37;100219.00;;;1.70
22322;BMP180;11328;53.928;18.522;2023-11-21T09:26:04;100213.00;;;1.60
22322;BMP180;11328;53.928;18.522;2023-11-21T09:28:32;100213.00;;;1.60
22322;BMP180;11328;53.928;18.522;2023-11-21T09:30:59;100228.00;;;1.60
22322;BMP180;11328;53.928;18.522;2023-11-21T09:33:26;100227.00;;;1.60
22322;BMP180;11328;53.928;18.522;2023-11-21T09:35:53;100226.00;;;1.80
22322;BMP180;11328;53.928;18.522;2023-11-21T09:38:21;100230.00;;;1.80
22322;BMP180;11328;53.928;18.522;2023-11-21T09:40:48;100224.00;;;1.90
22322;BMP180;11328;53.928;18.522;2023-11-21T09:43:17;100228.00;;;2.00
22322;BMP180;11328;53.928;18.522;2023-11-21T09:45:59;100234.00;;;1.90
22322;BMP180;11328;53.928;18.522;2023-11-21T09:48:26;100211.00;;;2.00
22322;BMP180;11328;53.928;18.522;2023-11-21T12:49:46;100323.00;;;2.20
22322;BMP180;11328;53.928;18.522;2023-11-21T12:52:15;100340.00;;;2.20
22322;BMP180;11328;53.928;18.522;2023-11-21T12:54:43;100339.00;;;2.40
22322;BMP180;11328;53.928;18.522;2023-11-21T12:57:10;100350.00;;;2.50
22322;BMP180;11328;53.928;18.522;2023-11-21T12:59:39;100351.00;;;2.50
22322;BMP180;11328;53.928;18.522;2023-11-21T13:02:06;100348.00;;;2.50
22322;BMP180;11328;53.928;18.522;2023-11-21T13:04:33;100348.00;;;2.60
22322;BMP180;11328;53.928;18.522;2023-11-21T13:07:05;100355.00;;;2.50
22322;BMP180;11328;53.928;18.522;2023-11-21T13:09:41;100365.00;;;2.60
22322;BMP180;11328;53.928;18.522;2023-11-21T13:12:08;100369.00;;;2.60
22322;BMP180;11328;53.928;18.522;2023-11-21T13:14:37;100385.00;;;2.50
22322;BMP180;11328;53.928;18.522;2023-11-21T13:17:04;100378.00;;;2.60
22322;BMP180;11328;53.928;18.522;2023-11-21T13:19:31;100377.00;;;2.60
22322;BMP180;11328;53.928;18.522;2023-11-21T13:21:58;100375.00;;;2.60
22322;BMP180;11328;53.928;18.522;2023-11-21T13:24:28;100380.00;;;2.60
22322;BMP180;11328;53.928;18.522;2023-11-21T13:26:55;100372.00;;;2.50
22322;BMP180;11328;53.928;18.522;2023-11-21T13:29:22;100387.00;;;2.40
22322;BMP180;11328;53.928;18.522;2023-11-21T13:31:50;100390.00;;;2.40
22322;BMP180;11328;53.928;18.522;2023-11-21T13:34:17;100397.00;;;2.40
22322;BMP180;11328;53.928;18.522;2023-11-21T13:36:50;100401.00;;;2.40
22322;BMP180;11328;53.928;18.522;2023-11-21T13:39:22;100398.00;;;2.40
22322;BMP180;11328;53.928;18.522;2023-11-21T13:41:50;100409.00;;;2.30
22322;BMP180;11328;53.928;18.522;2023-11-21T13:44:21;100420.00;;;2.30
22322;BMP180;11328;53.928;18.522;2023-11-21T13:47:01;100417.00;;;2.30
22322;BMP180;11328;53.928;18.522;2023-11-21T13:49:28;100419.00;;;2.30
22322;BMP180;11328;53.928;18.522;2023-11-21T13:51:58;100431.00;;;2.40
22322;BMP180;11328;53.928;18.522;2023-11-21T13:54:26;100448.00;;;2.30
22322;BMP180;11328;53.928;18.522;2023-11-21T13:56:54;100447.00;;;2.30
22322;BMP180;11328;53.928;18.522;2023-11-21T13:59:22;100445.00;;;2.40
22322;BMP180;11328;53.928;18.522;2023-11-21T14:01:59;100442.00;;;2.40
22322;BMP180;11328;53.928;18.522;2023-11-21T14:04:27;100456.00;;;2.50
22322;BMP180;11328;53.928;18.522;2023-11-21T14:06:57;100461.00;;;2.40
22322;BMP180;11328;53.928;18.522;2023-11-21T14:09:28;100454.00;;;2.30
22322;BMP180;11328;53.928;18.522;2023-11-21T14:12:10;100451.00;;;2.30
22322;BMP180;11328;53.928;18.522;2023-11-21T14:14:39;100452.00;;;2.40
22322;BMP180;11328;53.928;18.522;2023-11-21T14:17:06;100457.00;;;2.30
22322;BMP180;11328;53.928;18.522;2023-11-21T14:19:34;100459.00;;;2.40
22322;BMP180;11328;53.928;18.522;2023-11-21T14:22:06;100466.00;;;2.30
22322;BMP180;11328;53.928;18.522;2023-11-21T14:24:37;100465.00;;;2.30
22322;BMP180;11328;53.928;18.522;2023-11-21T14:27:04;100469.00;;;2.10
22322;BMP180;11328;53.928;18.522;2023-11-21T14:29:32;100473.00;;;2.10
22322;BMP180;11328;53.928;18.522;2023-11-21T14:32:05;100484.00;;;2.20
22322;BMP180;11328;53.928;18.522;2023-11-21T14:34:33;100476.00;;;2.00
22322;BMP180;11328;53.928;18.522;2023-11-21T14:37:00;100475.00;;;2.00
22322;BMP180;11328;53.928;18.522;2023-11-21T14:43:39;100477.00;;;1.80
22322;BMP180;11328;53.928;18.522;2023-11-21T14:46:07;100467.00;;;1.70
22322;BMP180;11328;53.928;18.522;2023-11-21T14:48:36;100477.00;;;1.50
22322;BMP180;11328;53.928;18.522;2023-11-21T14:51:10;100475.00;;;1.40
22322;BMP180;11328;53.928;18.522;2023-11-21T14:53:49;100466.00;;;1.40
22322;BMP180;11328;53.928;18.522;2023-11-21T14:56:29;100474.00;;;1.40
22322;BMP180;11328;53.928;18.522;2023-11-21T14:58:58;100476.00;;;1.40
22322;BMP180;11328;53.928;18.522;2023-11-21T15:01:34;100467.00;;;1.40
22322;BMP180;11328;53.928;18.522;2023-11-21T15:04:10;100472.00;;;1.50
22322;BMP180;11328;53.928;18.522;2023-11-21T15:06:57;100476.00;;;1.50
22322;BMP180;11328;53.928;18.522;2023-11-21T15:09:25;100478.00;;;1.40
22322;BMP180;11328;53.928;18.522;2023-11-21T15:11:59;100483.00;;;1.50
22322;BMP180;11328;53.928;18.522;2023-11-21T15:14:38;100489.00;;;1.40
22322;BMP180;11328;53.928;18.522;2023-11-21T15:17:05;100492.00;;;1.50
22322;BMP180;11328;53.928;18.522;2023-11-21T15:19:33;100486.00;;;1.40
22322;BMP180;11328;53.928;18.522;2023-11-21T15:22:02;100496.00;;;1.40
22322;BMP180;11328;53.928;18.522;2023-11-21T15:24:30;100510.00;;;1.40
22322;BMP180;11328;53.928;18.522;2023-11-21T15:26:57;100443.00;;;1.40
22322;BMP180;11328;53.928;18.522;2023-11-21T15:29:24;100518.00;;;1.50
22322;BMP180;11328;53.928;18.522;2023-11-21T15:31:52;100522.00;;;1.40
22322;BMP180;11328;53.928;18.522;2023-11-21T15:34:23;100528.00;;;1.40
22322;BMP180;11328;53.928;18.522;2023-11-21T15:36:50;100521.00;;;1.30
22322;BMP180;11328;53.928;18.522;2023-11-21T15:39:20;100528.00;;;1.30
22322;BMP180;11328;53.928;18.522;2023-11-21T15:41:59;100537.00;;;1.30
22322;BMP180;11328;53.928;18.522;2023-11-21T15:44:26;100539.00;;;1.40
22322;BMP180;11328;53.928;18.522;2023-11-21T15:46:54;100534.00;;;1.40
22322;BMP180;11328;53.928;18.522;2023-11-21T15:49:22;100553.00;;;1.40
22322;BMP180;11328;53.928;18.522;2023-11-21T15:51:50;100551.00;;;1.30
22322;BMP180;11328;53.928;18.522;2023-11-21T15:54:22;100553.00;;;1.30
22322;BMP180;11328;53.928;18.522;2023-11-21T15:56:53;100562.00;;;1.10
22322;BMP180;11328;53.928;18.522;2023-11-21T15:59:24;100524.00;;;1.10
22322;BMP180;11328;53.928;18.522;2023-11-21T16:01:57;100543.00;;;1.10
22322;BMP180;11328;53.928;18.522;2023-11-21T16:04:24;100560.00;;;1.00
22322;BMP180;11328;53.928;18.522;2023-11-21T16:06:54;100560.00;;;1.00
22322;BMP180;11328;53.928;18.522;2023-11-21T16:09:21;100538.00;;;0.80
22322;BMP180;11328;53.928;18.522;2023-11-21T16:11:51;100570.00;;;0.90
22322;BMP180;11328;53.928;18.522;2023-11-21T16:14:26;100551.00;;;0.80
22322;BMP180;11328;53.928;18.522;2023-11-21T16:16:56;100583.00;;;0.80
22322;BMP180;11328;53.928;18.522;2023-11-21T16:19:24;100589.00;;;0.80
22322;BMP180;11328;53.928;18.522;2023-11-21T16:21:51;100588.00;;;0.80
22322;BMP180;11328;53.928;18.522;2023-11-21T16:24:20;100589.00;;;0.80
22322;BMP180;11328;53.928;18.522;2023-11-21T16:26:48;100601.00;;;0.80
22322;BMP180;11328;53.928;18.522;2023-11-21T16:29:15;100599.00;;;0.80
22322;BMP180;11328;53.928;18.522;2023-11-21T16:31:44;100605.00;;;0.70
22322;BMP180;11328;53.928;18.522;2023-11-21T16:34:17;100607.00;;;0.60
22322;BMP180;11328;53.928;18.522;2023-11-21T16:36:48;100608.00;;;0.60
22322;BMP180;11328;53.928;18.522;2023-11-21T16:39:19;100607.00;;;0.60
22322;BMP180;11328;53.928;18.522;2023-11-21T16:41:48;100613.00;;;0.60
22322;BMP180;11328;53.928;18.522;2023-11-21T16:44:20;100612.00;;;0.60
22322;BMP180;11328;53.928;18.522;2023-11-21T16:46:50;100595.00;;;0.60
22322;BMP180;11328;53.928;18.522;2023-11-21T16:49:20;100623.00;;;0.60
22322;BMP180;11328;53.928;18.522;2023-11-21T16:51:48;100614.00;;;0.50
22322;BMP180;11328;53.928;18.522;2023-11-21T16:54:16;100605.00;;;0.60
22322;BMP180;11328;53.928;18.522;2023-11-21T16:56:43;100623.00;;;0.40
22322;BMP180;11328;53.928;18.522;2023-11-21T16:59:14;100623.00;;;0.40
22322;BMP180;11328;53.928;18.522;2023-11-21T17:01:42;100633.00;;;0.40
22322;BMP180;11328;53.928;18.522;2023-11-21T17:04:15;100634.00;;;0.30
22322;BMP180;11328;53.928;18.522;2023-11-21T17:06:43;100625.00;;;0.30
22322;BMP180;11328;53.928;18.522;2023-11-21T17:09:11;100626.00;;;0.30
22322;BMP180;11328;53.928;18.522;2023-11-21T17:11:41;100637.00;;;0.30